Time;durP1;ratioP1;P1;durP2;ratioP2;P2;SDS_P1;SDS_P2;PMS_P1;PMS_P2;Temp;Humidity;BMP_temperature;BMP_pressure;BME280_temperature;BME280_humidity;BME280_pressure;Samples;Min_cycle;Max_cycle;Signal;HPM_P1;HPM_P2
2022/08/26 00:00:35;;;;;;;9.45;2.72;;;;;;;22.22;60.17;101663.69;5117018;28;20045;-41
2022/08/26 00:03:08;;;;;;;7.80;2.63;;;;;;;22.08;60.50;101652.09;5124257;28;20046;-36
2022/08/26 00:05:42;;;;;;;14.68;1.85;;;;;;;22.17;60.29;101666.16;5108310;28;20038;-39
2022/08/26 00:08:16;;;;;;;7.97;1.70;;;;;;;22.06;60.13;101664.91;5118212;28;21526;-42
2022/08/26 00:10:50;;;;;;;13.18;2.03;;;;;;;22.05;60.41;101665.09;5147567;28;20040;-39
2022/08/26 00:13:23;;;;;;;8.13;3.00;;;;;;;22.02;60.40;101671.75;5136371;27;20056;-40
2022/08/26 00:15:56;;;;;;;6.88;1.70;;;;;;;21.93;60.64;101661.38;5138275;28;20054;-47
2022/08/26 00:18:28;;;;;;;;;;;;;;;21.96;60.52;101669.03;5095773;28;20039;-42
2022/08/26 00:21:01;;;;;;;8.82;2.45;;;;;;;21.89;60.56;101660.94;5133760;27;19930;-42
2022/08/26 00:24:22;;;;;;;13.95;2.45;;;;;;;21.95;60.65;101668.19;5110559;28;20038;-46
2022/08/26 00:26:56;;;;;;;9.95;1.90;;;;;;;21.91;60.52;101666.97;5085134;28;20059;-39
2022/08/26 00:29:30;;;;;;;13.38;2.10;;;;;;;21.84;60.44;101655.38;5143229;27;20043;-43
2022/08/26 00:32:04;;;;;;;7.60;1.90;;;;;;;21.94;60.31;101660.34;5114220;27;20074;-44
2022/08/26 00:34:36;;;;;;;6.60;1.98;;;;;;;21.89;60.35;101658.25;5134693;28;20477;-44
2022/08/26 00:37:09;;;;;;;14.93;2.42;;;;;;;21.82;60.54;101652.03;5115971;28;20039;-41
2022/08/26 00:39:42;;;;;;;7.75;2.05;;;;;;;21.90;60.42;101664.50;5122060;28;20051;-42
2022/08/26 00:42:16;;;;;;;11.85;2.65;;;;;;;21.88;60.19;101660.13;5149562;28;20402;-37
2022/08/26 00:44:49;;;;;;;4.45;1.55;;;;;;;21.89;60.27;101658.25;5094883;28;20050;-39
2022/08/26 00:47:27;;;;;;;10.40;2.55;;;;;;;21.85;60.31;101657.84;5094801;28;20051;-40
2022/08/26 00:50:02;;;;;;;6.03;1.90;;;;;;;21.95;60.33;101673.56;5177876;28;20531;-42
2022/08/26 00:52:35;;;;;;;7.88;1.63;;;;;;;21.86;60.14;101661.34;5153283;28;20463;-41
2022/08/26 00:55:14;;;;;;;10.10;1.88;;;;;;;21.89;60.21;101669.00;5140978;27;20054;-41
2022/08/26 00:57:49;;;;;;;6.75;1.90;;;;;;;21.87;60.09;101669.22;5098691;28;20055;-40
2022/08/26 01:00:26;;;;;;;9.35;1.63;;;;;;;21.97;60.06;101671.53;5099395;28;20502;-39
2022/08/26 01:03:02;;;;;;;7.00;1.52;;;;;;;21.87;60.15;101661.16;5137618;27;20348;-42
2022/08/26 01:05:34;;;;;;;14.38;2.85;;;;;;;21.90;60.04;101676.06;5112498;28;20467;-39
2022/08/26 01:08:07;;;;;;;10.90;2.45;;;;;;;21.82;60.08;101668.19;5118939;28;20054;-40
2022/08/26 01:10:40;;;;;;;8.35;2.10;;;;;;;21.68;60.10;101655.72;5094420;28;20054;-43
2022/08/26 01:13:14;;;;;;;;;;;;;;;21.82;60.15;101668.19;5100215;28;20501;-43
2022/08/26 01:15:52;;;;;;;7.35;1.70;;;;;;;21.78;60.17;101656.19;5112149;28;19926;-44
2022/08/26 01:18:25;;;;;;;9.07;2.22;;;;;;;21.83;60.24;101669.81;5097964;28;20132;-43
2022/08/26 01:21:07;;;;;;;7.38;1.83;;;;;;;21.79;60.07;101653.28;5119689;28;20134;-41
2022/08/26 01:23:46;;;;;;;5.22;1.75;;;;;;;21.84;60.03;101668.81;5122411;28;20033;-43
2022/08/26 01:26:22;;;;;;;7.68;1.85;;;;;;;21.80;59.85;101651.41;5148306;27;20531;-40
2022/08/26 01:28:58;;;;;;;6.47;1.63;;;;;;;21.78;60.01;101637.38;5130313;28;20058;-40
2022/08/26 01:31:43;;;;;;;9.15;2.08;;;;;;;21.82;60.08;101662.81;5101994;28;20054;-43
2022/08/26 01:34:21;;;;;;;7.72;1.90;;;;;;;21.76;60.00;101658.25;5102571;28;20057;-41
2022/08/26 01:36:58;;;;;;;9.80;1.20;;;;;;;21.74;60.19;101666.53;5121831;28;20434;-42
2022/08/26 01:39:34;;;;;;;8.55;2.22;;;;;;;21.70;60.22;101675.19;5113651;28;20049;-41
2022/08/26 01:42:10;;;;;;;7.63;1.95;;;;;;;21.53;60.44;101659.44;5129677;27;20407;-41
2022/08/26 01:44:49;;;;;;;13.82;2.00;;;;;;;21.58;60.33;101662.31;5114609;28;20051;-40
2022/08/26 01:47:24;;;;;;;10.82;1.88;;;;;;;21.56;60.29;101658.22;5098251;28;20058;-42
2022/08/26 01:49:59;;;;;;;4.50;1.83;;;;;;;21.57;60.29;101663.38;5093150;28;20123;-42
2022/08/26 01:52:35;;;;;;;11.40;1.55;;;;;;;21.56;60.28;101669.78;5109635;28;20047;-40
2022/08/26 01:55:12;;;;;;;5.00;1.55;;;;;;;21.51;60.15;101666.03;5095901;28;20051;-42
2022/08/26 01:57:46;;;;;;;9.55;2.45;;;;;;;21.48;60.20;101661.88;5092846;28;20039;-40
2022/08/26 02:00:19;;;;;;;6.90;1.25;;;;;;;21.57;60.18;101671.44;5139327;28;20384;-38
2022/08/26 02:05:43;;;;;;;5.53;1.27;;;;;;;21.62;60.21;101689.66;5101472;28;20051;-42
2022/08/26 02:08:18;;;;;;;3.40;1.17;;;;;;;21.56;60.23;101677.84;5128134;27;20055;-39
2022/08/26 02:10:53;;;;;;;6.95;1.30;;;;;;;21.54;59.99;101674.53;5093316;28;20117;-40
2022/08/26 02:13:30;;;;;;;5.38;1.40;;;;;;;21.62;59.97;101679.72;5132516;28;20417;-41
2022/08/26 02:16:03;;;;;;;11.27;2.20;;;;;;;21.49;60.08;101668.91;5095449;28;20513;-36
2022/08/26 02:18:40;;;;;;;6.22;1.50;;;;;;;21.49;60.11;101668.91;5113726;28;20042;-40
2022/08/26 02:21:14;;;;;;;7.63;1.60;;;;;;;21.44;60.27;101665.19;5157220;27;20083;-39
2022/08/26 02:23:46;;;;;;;10.23;1.80;;;;;;;21.41;60.26;101666.41;5120388;27;20490;-44
2022/08/26 02:26:24;;;;;;;7.15;1.95;;;;;;;21.50;60.29;101673.28;5143337;28;20052;-39
2022/08/26 02:29:05;;;;;;;6.53;2.03;;;;;;;21.38;60.38;101666.81;5139371;28;20066;-39
2022/08/26 02:31:38;;;;;;;7.47;1.42;;;;;;;21.39;60.29;101676.53;5129628;28;20044;-41
2022/08/26 02:34:11;;;;;;;;;;;;;;;21.45;60.37;101686.47;5131391;28;20062;-43
2022/08/26 02:36:44;;;;;;;12.52;2.22;;;;;;;21.35;60.24;101676.09;5110000;28;19924;-41
2022/08/26 02:39:16;;;;;;;12.18;1.63;;;;;;;21.42;60.28;101690.38;5096727;28;20057;-41
2022/08/26 02:41:51;;;;;;;13.45;3.03;;;;;;;21.40;60.35;101691.66;5093808;28;20063;-39
2022/08/26 02:44:24;;;;;;;8.95;2.35;;;;;;;21.29;60.45;101673.38;5117467;27;20058;-40
2022/08/26 02:46:57;;;;;;;9.18;2.17;;;;;;;21.28;60.49;101672.53;5105006;28;20053;-43
2022/08/26 02:49:30;;;;;;;14.27;1.95;;;;;;;21.21;60.81;101668.97;5157975;27;20413;-42
2022/08/26 02:52:03;;;;;;;;;;;;;;;21.18;60.84;101662.19;5134644;28;20384;-37
2022/08/26 02:54:35;;;;;;;11.07;1.75;;;;;;;21.17;60.64;101668.56;5117804;27;19945;-42
2022/08/26 02:57:10;;;;;;;8.02;1.65;;;;;;;21.25;60.54;101683.69;5101608;28;20139;-40
2022/08/26 02:59:43;;;;;;;9.77;2.38;;;;;;;21.19;60.71;101679.94;5098820;28;20050;-41
2022/08/26 03:02:16;;;;;;;12.45;2.25;;;;;;;21.18;60.68;101672.91;5122283;27;20369;-42
2022/08/26 03:04:49;;;;;;;12.40;1.77;;;;;;;21.19;60.63;101671.88;5129495;27;20085;-42
2022/08/26 03:07:21;;;;;;;8.00;1.95;;;;;;;21.10;60.65;101665.03;5119941;27;20038;-43
2022/08/26 03:09:54;;;;;;;9.43;2.60;;;;;;;21.14;60.63;101674.31;5103919;28;20504;-45
2022/08/26 03:12:28;;;;;;;13.75;2.50;;;;;;;21.06;60.73;101661.09;5095841;28;20414;-42
2022/08/26 03:15:01;;;;;;;9.68;1.65;;;;;;;21.07;60.82;101676.16;5103138;28;20460;-42
2022/08/26 03:17:33;;;;;;;10.73;2.38;;;;;;;21.05;60.78;101677.38;5153226;27;20044;-42
2022/08/26 03:20:08;;;;;;;8.85;1.98;;;;;;;21.06;60.75;101669.13;5138337;27;20052;-41
2022/08/26 03:22:41;;;;;;;7.75;1.80;;;;;;;21.01;60.76;101668.06;5119767;27;20270;-41
2022/08/26 03:25:16;;;;;;;6.95;1.67;;;;;;;20.97;60.95;101662.28;5139891;28;20054;-42
2022/08/26 03:27:50;;;;;;;7.53;1.70;;;;;;;20.97;60.90;101670.31;5123136;27;20551;-41
2022/08/26 03:30:41;;;;;;;8.65;1.90;;;;;;;21.05;60.85;101678.19;5098538;28;20362;-42
2022/08/26 03:33:14;;;;;;;7.32;1.85;;;;;;;21.07;60.73;101680.72;5138853;28;20044;-44
2022/08/26 03:35:47;;;;;;;7.78;2.80;;;;;;;21.09;60.78;101679.50;5093181;28;20039;-42
2022/08/26 03:38:21;;;;;;;6.90;1.98;;;;;;;21.16;60.76;101685.72;5098275;28;20096;-41
2022/08/26 03:40:55;;;;;;;7.75;1.83;;;;;;;21.13;60.64;101679.91;5100771;28;20046;-43
2022/08/26 03:43:29;;;;;;;8.00;2.10;;;;;;;21.07;60.64;101660.03;5159206;27;20042;-43
2022/08/26 03:46:05;;;;;;;13.25;1.98;;;;;;;21.04;60.54;101655.06;5119522;28;20112;-42
2022/08/26 03:48:39;;;;;;;8.38;1.90;;;;;;;21.12;60.56;101679.09;5137415;27;20341;-41
2022/08/26 03:51:14;;;;;;;10.10;3.30;;;;;;;21.07;60.52;101661.91;5098658;28;20520;-41
2022/08/26 03:53:48;;;;;;;10.95;1.88;;;;;;;21.04;60.48;101665.81;5126042;28;20426;-44
2022/08/26 03:56:20;;;;;;;13.02;2.60;;;;;;;20.97;60.44;101651.53;5124123;27;20276;-42
2022/08/26 03:58:55;;;;;;;12.63;2.45;;;;;;;21.06;60.46;101671.81;5116404;28;20433;-44
2022/08/26 04:01:28;;;;;;;13.27;2.58;;;;;;;21.06;60.39;101662.91;5140683;27;20058;-42
2022/08/26 04:04:01;;;;;;;10.13;1.63;;;;;;;21.11;60.26;101671.22;5118241;27;20478;-40
2022/08/26 04:06:36;;;;;;;6.70;2.45;;;;;;;21.04;60.18;101657.75;5095787;28;20042;-38
2022/08/26 04:09:13;;;;;;;10.95;2.13;;;;;;;21.16;60.32;101672.28;5112990;28;20628;-42
2022/08/26 04:11:48;;;;;;;18.00;2.22;;;;;;;21.10;60.04;101654.28;5096495;28;20047;-42
2022/08/26 04:14:25;;;;;;;6.70;1.85;;;;;;;21.14;60.13;101671.63;5120519;27;20409;-42
2022/08/26 04:16:58;;;;;;;9.88;2.47;;;;;;;21.07;60.28;101659.22;5159057;27;20044;-39
2022/08/26 04:19:31;;;;;;;9.20;2.22;;;;;;;21.09;60.27;101666.06;5137084;28;20055;-40
2022/08/26 04:22:04;;;;;;;6.95;1.83;;;;;;;21.04;60.08;101657.75;5097048;28;20146;-37
2022/08/26 04:24:37;;;;;;;8.52;2.65;;;;;;;21.00;60.23;101661.03;5099358;28;20039;-39
2022/08/26 04:27:10;;;;;;;15.63;3.15;;;;;;;21.01;60.47;101662.69;5102404;28;20477;-40
2022/08/26 04:29:45;;;;;;;;;;;;;;;21.08;60.20;101671.63;5114236;28;20115;-42
2022/08/26 04:32:18;;;;;;;4.72;1.85;;;;;;;20.96;60.28;101657.91;5097830;28;20010;-43
2022/08/26 04:34:50;;;;;;;8.63;1.73;;;;;;;20.97;60.29;101654.22;5145887;28;20066;-39
2022/08/26 04:37:23;;;;;;;14.23;2.72;;;;;;;20.93;60.18;101653.78;5119272;27;20047;-44
2022/08/26 04:40:26;;;;;;;8.00;1.52;;;;;;;21.04;60.20;101670.38;5114888;28;20383;-44
2022/08/26 04:42:59;;;;;;;11.82;2.80;;;;;;;20.93;60.17;101659.16;5127687;28;20063;-44
2022/08/26 04:45:36;;;;;;;4.05;1.77;;;;;;;20.96;60.20;101660.59;5119043;28;20084;-43
2022/08/26 04:48:09;;;;;;;8.18;2.05;;;;;;;20.96;60.30;101668.66;5111192;28;20125;-42
2022/08/26 04:50:41;;;;;;;10.10;2.75;;;;;;;20.98;60.32;101677.34;5106673;28;20453;-47
2022/08/26 04:53:14;;;;;;;11.75;2.05;;;;;;;20.91;60.40;101668.44;5111366;28;20042;-41
2022/08/26 04:55:47;;;;;;;8.55;3.00;;;;;;;21.00;60.12;101679.81;5102703;28;20043;-42
2022/08/26 04:58:22;;;;;;;7.93;1.70;;;;;;;20.95;60.18;101675.88;5148938;28;20469;-40
2022/08/26 05:00:57;;;;;;;18.55;2.13;;;;;;;20.96;60.29;101679.38;5107231;27;20093;-42
2022/08/26 05:03:29;;;;;;;10.77;2.13;;;;;;;20.93;60.13;101669.03;5091864;28;20054;-46
2022/08/26 05:06:05;;;;;;;9.65;2.65;;;;;;;21.00;60.12;101667.25;5116912;28;20069;-43
2022/08/26 05:08:38;;;;;;;8.75;2.13;;;;;;;20.99;60.01;101668.25;5114249;27;20058;-42
2022/08/26 05:11:10;;;;;;;9.23;2.10;;;;;;;21.11;59.87;101688.16;5107374;28;20047;-42
2022/08/26 05:13:43;;;;;;;6.43;2.08;;;;;;;21.08;59.92;101683.19;5104353;28;20055;-40
2022/08/26 05:16:18;;;;;;;11.80;2.78;;;;;;;21.10;59.90;101683.81;5096051;28;20216;-38
2022/08/26 05:19:15;;;;;;;6.07;2.05;;;;;;;21.13;59.74;101688.78;5163040;28;20518;-42
2022/08/26 05:21:48;;;;;;;14.52;3.08;;;;;;;21.12;59.71;101684.47;5168633;28;20357;-42
2022/08/26 05:24:20;;;;;;;;;;;;;;;21.21;59.67;101695.03;5199485;27;20442;-39
2022/08/26 05:26:53;;;;;;;10.00;2.25;;;;;;;21.14;59.35;101685.06;5202036;28;20337;-39
2022/08/26 05:29:26;;;;;;;11.20;1.98;;;;;;;21.16;59.31;101701.00;5196091;28;20468;-40
2022/08/26 05:32:00;;;;;;;;;;;;;;;21.16;59.29;101701.81;5189614;28;20060;-39
2022/08/26 05:34:33;;;;;;;7.00;2.13;;;;;;;21.06;59.25;101689.78;5157323;28;20386;-34
2022/08/26 05:37:07;;;;;;;9.10;2.08;;;;;;;21.12;59.35;101695.22;5174997;28;20051;-41
2022/08/26 05:39:39;;;;;;;11.50;1.48;;;;;;;21.07;59.23;101694.97;5203111;28;20404;-43
2022/08/26 05:42:12;;;;;;;6.45;1.60;;;;;;;21.10;59.24;101702.63;5190499;28;20044;-39
2022/08/26 05:44:45;;;;;;;9.48;2.78;;;;;;;21.03;59.35;101717.03;5197153;28;20044;-43
2022/08/26 05:47:19;;;;;;;10.93;2.13;;;;;;;20.97;59.25;101705.25;5198826;28;20788;-41
2022/08/26 05:49:51;;;;;;;9.88;2.40;;;;;;;21.04;59.44;101719.53;5195563;28;20032;-39
2022/08/26 05:52:24;;;;;;;12.45;2.92;;;;;;;20.95;59.55;101716.16;5185204;28;20045;-38
2022/08/26 05:54:57;;;;;;;10.35;2.10;;;;;;;20.97;59.52;101707.94;5196205;28;20397;-44
2022/08/26 05:57:31;;;;;;;9.68;2.00;;;;;;;21.01;59.52;101709.19;5187927;28;20064;-36
2022/08/26 06:00:05;;;;;;;9.52;2.22;;;;;;;21.17;59.16;101730.34;5185362;28;20057;-40
2022/08/26 06:02:40;;;;;;;6.22;2.63;;;;;;;21.15;59.32;101724.34;5191326;28;20483;-46
2022/08/26 06:05:12;;;;;;;5.97;2.00;;;;;;;21.15;59.38;101716.28;5195641;28;20230;-39
2022/08/26 06:10:36;;;;;;;11.93;2.17;;;;;;;21.09;59.04;101719.78;5188711;28;20040;-38
2022/08/26 06:13:09;;;;;;;9.13;2.03;;;;;;;21.21;59.08;101743.38;5191405;28;20040;-43
2022/08/26 06:15:44;;;;;;;12.73;1.95;;;;;;;21.12;59.15;101731.94;5185696;28;20136;-41
2022/08/26 06:18:22;;;;;;;8.38;1.88;;;;;;;21.18;59.21;101744.59;5132535;28;20053;-45
2022/08/26 06:20:55;;;;;;;6.95;1.67;;;;;;;21.10;59.03;101724.09;5158326;28;20387;-42
2022/08/26 06:26:23;;;;;;;7.65;1.48;;;;;;;21.22;58.71;101732.44;5133580;28;20403;-40
2022/08/26 06:28:55;;;;;;;11.15;1.85;;;;;;;21.29;58.54;101746.72;5158919;28;20180;-41
2022/08/26 06:31:29;;;;;;;6.50;1.65;;;;;;;21.30;58.50;101751.06;5138077;28;20054;-40
2022/08/26 06:34:03;;;;;;;6.35;1.30;;;;;;;21.31;58.57;101746.56;5147281;28;20050;-40
2022/08/26 06:36:36;;;;;;;6.97;1.15;;;;;;;21.36;58.44;101744.09;5141435;28;20042;-40
2022/08/26 06:39:12;;;;;;;4.15;1.17;;;;;;;21.52;58.26;101759.91;5147676;28;21505;-40
2022/08/26 06:41:46;;;;;;;8.15;1.65;;;;;;;21.63;58.22;101745.88;5152794;28;20046;-42
2022/08/26 06:44:19;;;;;;;5.78;1.05;;;;;;;21.66;57.64;101738.47;5145125;28;20495;-46
2022/08/26 06:46:52;;;;;;;10.80;2.42;;;;;;;21.70;57.66;101731.66;5143778;28;20065;-39
2022/08/26 06:49:26;;;;;;;;;;;;;;;21.81;57.80;101747.22;5158254;28;20054;-40
2022/08/26 06:51:58;;;;;;;6.15;1.90;;;;;;;21.70;57.33;101731.66;5134237;28;20250;-39
2022/08/26 06:54:32;;;;;;;7.63;1.90;;;;;;;21.74;57.58;101744.50;5136520;28;20128;-43
2022/08/26 06:57:05;;;;;;;14.85;2.03;;;;;;;21.75;57.75;101754.22;5135672;28;20368;-35
2022/08/26 06:59:37;;;;;;;8.05;1.48;;;;;;;21.69;57.77;101751.50;5151524;28;20482;-43
2022/08/26 07:02:10;;;;;;;15.52;2.40;;;;;;;21.71;57.52;101746.72;5132356;28;20119;-43
2022/08/26 07:04:44;;;;;;;10.50;2.08;;;;;;;21.76;57.43;101755.03;5160123;28;20050;-41
2022/08/26 07:07:17;;;;;;;9.75;1.50;;;;;;;21.69;57.52;101755.00;5160847;28;20061;-47
2022/08/26 07:09:50;;;;;;;5.00;1.65;;;;;;;21.69;57.54;101738.06;5152324;28;20328;-41
2022/08/26 07:12:23;;;;;;;9.55;1.83;;;;;;;21.79;57.44;101752.78;5149398;28;20039;-41
2022/08/26 07:14:56;;;;;;;5.20;1.42;;;;;;;21.82;57.32;101754.22;5136040;28;20351;-38
2022/08/26 07:17:28;;;;;;;9.52;2.17;;;;;;;21.91;57.16;101761.09;5144852;28;20055;-40
2022/08/26 07:20:05;;;;;;;11.95;1.50;;;;;;;21.94;57.08;101762.53;5134013;28;20050;-39
2022/08/26 07:22:38;;;;;;;6.25;1.55;;;;;;;21.90;56.90;101766.69;5172829;28;20489;-40
2022/08/26 07:25:11;;;;;;;5.15;1.40;;;;;;;21.87;57.24;101775.97;5185092;28;20202;-44
2022/08/26 07:27:44;;;;;;;6.18;2.13;;;;;;;21.84;57.29;101790.66;5177306;28;20388;-39
2022/08/26 07:30:17;;;;;;;4.95;1.35;;;;;;;21.88;57.07;101785.69;5180274;28;20048;-44
2022/08/26 07:32:49;;;;;;;7.00;1.30;;;;;;;21.93;57.09;101785.94;5204787;28;20392;-42
2022/08/26 07:35:23;;;;;;;8.38;1.85;;;;;;;22.04;56.81;101785.31;5179296;28;20055;-38
2022/08/26 07:37:56;;;;;;;13.63;2.00;;;;;;;22.06;56.69;101777.88;5159485;28;20047;-42
2022/08/26 07:40:29;;;;;;;7.25;1.42;;;;;;;22.13;56.54;101785.97;5152499;28;20035;-42
2022/08/26 07:43:02;;;;;;;7.40;1.75;;;;;;;22.13;56.28;101787.84;5177563;28;20061;-43
2022/08/26 07:45:34;;;;;;;10.23;1.73;;;;;;;22.20;56.34;101799.47;5179245;28;20533;-36
2022/08/26 07:48:07;;;;;;;7.13;1.35;;;;;;;22.24;56.09;101784.59;5152364;28;20041;-44
2022/08/26 07:50:41;;;;;;;5.50;0.90;;;;;;;22.41;55.93;101803.88;5168725;28;20111;-40
2022/08/26 07:53:14;;;;;;;13.23;1.92;;;;;;;22.51;55.65;101786.25;5149123;28;20263;-44
2022/08/26 07:55:47;;;;;;;;;;;;;;;22.83;55.25;101799.16;5157277;28;20050;-42
2022/08/26 07:58:20;;;;;;;9.73;1.50;;;;;;;22.78;55.03;101784.41;5179846;28;19974;-40
2022/08/26 08:00:53;;;;;;;7.90;1.38;;;;;;;22.74;55.39;101802.03;5159464;28;20154;-41
2022/08/26 08:03:25;;;;;;;7.57;2.05;;;;;;;22.67;55.32;101794.97;5128722;28;20070;-39
2022/08/26 08:05:59;;;;;;;9.43;1.65;;;;;;;22.65;55.41;101799.75;5165242;27;20044;-40
2022/08/26 08:08:34;;;;;;;5.65;1.70;;;;;;;22.67;55.42;101806.59;5162004;28;20042;-39
2022/08/26 08:11:07;;;;;;;5.72;2.58;;;;;;;22.69;55.58;101809.88;5164699;28;20139;-39
2022/08/26 08:13:40;;;;;;;5.63;1.08;;;;;;;22.78;55.45;101805.13;5170484;28;20052;-41
2022/08/26 08:16:12;;;;;;;3.75;1.10;;;;;;;23.00;55.10;101806.59;5163913;28;20074;-38
2022/08/26 08:18:45;;;;;;;5.95;1.30;;;;;;;23.27;54.53;101808.44;5146235;28;20054;-39
2022/08/26 08:21:19;;;;;;;5.07;1.60;;;;;;;23.43;54.41;101816.91;5164404;28;20054;-39
2022/08/26 08:23:54;;;;;;;8.05;3.33;;;;;;;23.47;54.19;101815.47;5151642;28;20413;-39
2022/08/26 08:26:27;;;;;;;5.90;1.42;;;;;;;23.48;54.17;101811.72;5178288;28;20049;-41
2022/08/26 08:29:00;;;;;;;5.25;1.33;;;;;;;23.47;54.37;101823.53;5121067;28;20047;-41
2022/08/26 08:31:34;;;;;;;5.03;1.13;;;;;;;23.37;54.48;101814.22;5172277;27;20464;-39
2022/08/26 08:34:07;;;;;;;8.05;1.83;;;;;;;23.38;54.35;101810.47;5197547;28;20040;-42
2022/08/26 08:36:41;;;;;;;11.20;1.67;;;;;;;23.46;54.13;101812.94;5196187;28;20050;-39
2022/08/26 08:39:14;;;;;;;3.40;1.63;;;;;;;23.54;54.14;101820.00;5181973;28;20040;-40
2022/08/26 08:42:06;;;;;;;7.47;2.33;;;;;;;23.54;54.12;101806.50;5188486;28;20042;-39
2022/08/26 08:44:43;;;;;;;3.78;1.23;;;;;;;23.70;53.79;101800.69;5167944;28;20394;-40
2022/08/26 08:47:23;;;;;;;3.40;0.68;;;;;;;24.03;53.12;101803.22;5154649;28;20373;-42
2022/08/26 08:50:00;;;;;;;7.78;0.93;;;;;;;24.18;52.97;101813.72;5119520;28;20058;-39
2022/08/26 08:52:36;;;;;;;4.57;1.50;;;;;;;24.19;53.04;101809.97;5163857;28;20110;-47
2022/08/26 08:55:09;;;;;;;5.90;1.27;;;;;;;24.14;52.93;101821.41;5147528;28;20065;-43
2022/08/26 08:57:57;;;;;;;2.67;1.30;;;;;;;24.10;52.83;101809.41;5144330;28;20051;-40
2022/08/26 09:00:39;;;;;;;4.65;1.35;;;;;;;24.17;52.97;101812.06;5132169;28;20050;-40
2022/08/26 09:03:31;;;;;;;2.72;0.70;;;;;;;24.11;53.02;101812.94;5159024;28;20052;-40
2022/08/26 09:06:15;;;;;;;9.20;1.42;;;;;;;23.98;53.04;101810.31;5186586;28;20062;-37
2022/08/26 09:08:51;;;;;;;7.32;2.10;;;;;;;23.96;53.22;101817.78;5205267;28;20122;-45
2022/08/26 09:11:24;;;;;;;6.60;1.80;;;;;;;24.03;53.09;101832.06;5199143;28;20060;-41
2022/08/26 09:13:57;;;;;;;7.50;1.88;;;;;;;23.96;53.31;101836.66;5209447;28;20048;-39
2022/08/26 09:16:44;;;;;;;12.27;1.60;;;;;;;23.91;53.44;101834.63;5186371;28;20515;-40
2022/08/26 09:19:28;;;;;;;6.35;1.20;;;;;;;23.77;53.60;101828.44;5154236;28;20047;-41
2022/08/26 09:22:01;;;;;;;5.30;1.17;;;;;;;23.77;53.48;101827.63;5131564;28;20042;-43
2022/08/26 09:24:40;;;;;;;13.00;3.10;;;;;;;24.02;53.30;101835.81;5181632;28;20142;-33
2022/08/26 09:27:20;;;;;;;7.10;1.75;;;;;;;24.21;52.77;101818.66;5158284;28;20042;-43
2022/08/26 09:29:53;;;;;;;6.15;1.42;;;;;;;24.42;52.54;101831.03;5155560;28;20046;-38
2022/08/26 09:32:26;;;;;;;12.13;1.50;;;;;;;24.27;52.56;101812.41;5163051;28;20048;-40
2022/08/26 09:35:01;;;;;;;;;;;;;;;24.35;52.57;101819.44;5153900;28;20045;-43
2022/08/26 09:37:39;;;;;;;11.13;2.28;;;;;;;24.34;52.58;101817.75;5151431;28;19922;-35
2022/08/26 09:40:21;;;;;;;10.70;1.90;;;;;;;24.47;52.49;101828.53;5130843;28;20042;-46
2022/08/26 09:43:12;;;;;;;12.68;1.67;;;;;;;24.57;52.04;101817.25;5141463;28;20412;-39
2022/08/26 09:45:53;;;;;;;6.43;1.52;;;;;;;24.85;51.56;101836.53;5152825;28;20046;-41
2022/08/26 09:48:30;;;;;;;8.07;2.20;;;;;;;24.95;51.52;101846.84;5112364;28;20131;-39
2022/08/26 09:51:05;;;;;;;15.07;2.90;;;;;;;24.90;51.56;101835.03;5125007;28;20046;-41
2022/08/26 09:53:53;;;;;;;8.02;2.13;;;;;;;24.67;51.91;101833.78;5131685;28;20447;-41
2022/08/26 09:56:30;;;;;;;8.63;1.65;;;;;;;24.49;52.24;101839.09;5112404;28;20526;-42
2022/08/26 09:59:04;;;;;;;7.18;2.25;;;;;;;24.25;52.51;101841.50;5116074;28;20117;-41
2022/08/26 10:01:40;;;;;;;6.45;1.52;;;;;;;24.13;52.81;101832.44;5107929;28;20049;-39
2022/08/26 10:04:20;;;;;;;6.68;1.33;;;;;;;23.90;52.87;101825.69;5129670;28;20042;-43
2022/08/26 10:06:57;;;;;;;13.35;2.25;;;;;;;23.86;53.19;101831.72;5114140;28;20070;-41
2022/08/26 10:09:37;;;;;;;8.43;2.05;;;;;;;23.73;53.44;101824.53;5090268;28;20055;-38
2022/08/26 10:12:16;;;;;;;9.82;2.08;;;;;;;23.59;53.56;101830.97;5111353;28;20390;-34
2022/08/26 10:14:52;;;;;;;8.65;1.67;;;;;;;23.58;53.57;101845.50;5117835;28;20050;-39
2022/08/26 10:17:31;;;;;;;8.45;2.25;;;;;;;23.53;53.53;101837.19;5138068;28;20054;-41
2022/08/26 10:20:08;;;;;;;3.47;1.90;;;;;;;23.55;53.33;101848.59;5158781;28;20416;-42
2022/08/26 10:22:49;;;;;;;9.18;1.80;;;;;;;23.44;53.45;101823.97;5161286;28;21297;-39
2022/08/26 10:25:28;;;;;;;6.45;1.92;;;;;;;23.43;53.50;101833.06;5202315;28;20090;-37
2022/08/26 10:28:09;;;;;;;12.95;2.35;;;;;;;23.56;53.46;101826.00;5205372;28;20064;-40
2022/08/26 10:30:50;;;;;;;10.52;1.58;;;;;;;23.74;52.99;101838.81;5203995;28;20110;-41
2022/08/26 10:33:23;;;;;;;6.80;1.67;;;;;;;23.76;52.83;101818.69;5194058;28;20054;-38
2022/08/26 10:36:00;;;;;;;10.98;1.90;;;;;;;23.93;52.75;101835.22;5208165;28;20496;-38
2022/08/26 10:38:37;;;;;;;9.57;2.58;;;;;;;24.04;52.49;101821.06;5194085;28;20069;-37
2022/08/26 10:41:14;;;;;;;7.63;1.60;;;;;;;24.17;52.16;101820.16;5197071;28;20052;-44
2022/08/26 10:43:56;;;;;;;6.25;2.42;;;;;;;24.19;52.25;101834.28;5183110;28;20447;-38
2022/08/26 10:46:42;;;;;;;8.70;2.05;;;;;;;24.13;51.98;101821.66;5212875;28;20055;-40
2022/08/26 10:49:17;;;;;;;13.00;2.40;;;;;;;24.14;52.09;101821.41;5198727;28;20039;-40
2022/08/26 10:52:03;;;;;;;10.90;2.28;;;;;;;24.32;51.95;101830.66;5197096;28;20045;-40
2022/08/26 10:54:42;;;;;;;7.97;1.92;;;;;;;24.51;51.68;101818.94;5185738;28;20044;-38
2022/08/26 10:57:22;;;;;;;5.57;1.70;;;;;;;24.61;51.21;101808.47;5168721;28;20059;-42
2022/08/26 11:01:40;;;;;;;6.68;1.90;;;;;;;24.88;50.99;101819.06;5196176;28;20468;-45
2022/08/26 11:03:05;;;;;;;17.80;2.40;;;;;;;25.08;50.58;101835.09;5164634;28;20107;-38
2022/08/26 11:05:38;;;;;;;6.50;1.88;;;;;;;25.07;50.73;101836.97;5178130;28;20440;-41
2022/08/26 11:08:30;;;;;;;9.05;1.45;;;;;;;24.89;50.50;101820.72;5156518;28;20047;-40
2022/08/26 11:11:03;;;;;;;7.45;1.77;;;;;;;24.99;50.35;101841.81;5156815;28;20075;-40
2022/08/26 11:14:02;;;;;;;6.75;1.63;;;;;;;25.40;49.90;101832.34;5138230;28;20046;-42
2022/08/26 11:16:42;;;;;;;7.40;1.30;;;;;;;25.79;49.39;101828.31;5133433;28;20043;-46
2022/08/26 11:19:57;;;;;;;9.00;1.73;;;;;;;26.07;49.03;101826.97;5123936;28;20502;-42
2022/08/26 11:22:36;;;;;;;7.68;1.90;;;;;;;26.31;48.23;101817.03;5140410;28;20122;-43
2022/08/26 11:25:13;;;;;;;12.38;2.35;;;;;;;26.47;47.88;101821.78;5127542;28;20128;-40
2022/08/26 11:28:04;;;;;;;5.07;1.23;;;;;;;26.45;48.17;101823.94;5150046;28;20485;-39
2022/08/26 11:30:49;;;;;;;4.90;1.10;;;;;;;26.29;48.46;101816.44;5182223;28;20045;-42
2022/08/26 11:33:59;;;;;;;13.52;1.13;;;;;;;26.20;48.83;101830.31;5126541;28;20188;-41
2022/08/26 11:36:58;;;;;;;3.90;1.35;;;;;;;26.13;49.17;101834.16;5167643;28;20435;-41
2022/08/26 11:39:35;;;;;;;3.45;1.30;;;;;;;26.06;49.25;101817.19;5210249;28;20468;-40
2022/08/26 11:42:22;;;;;;;4.55;1.45;;;;;;;26.38;49.10;101828.59;5193272;28;20201;-40
2022/08/26 11:44:57;;;;;;;9.43;1.73;;;;;;;26.57;48.55;101827.53;5201336;28;20682;-41
2022/08/26 11:47:32;;;;;;;4.88;1.35;;;;;;;26.62;48.63;101843.88;5200316;28;20412;-40
2022/08/26 11:50:14;;;;;;;8.18;2.28;;;;;;;26.54;48.74;101838.81;5201406;28;20056;-36
2022/08/26 11:52:55;;;;;;;3.87;1.20;;;;;;;26.34;49.13;101822.00;5196086;28;20040;-40
2022/08/26 11:55:28;;;;;;;5.63;1.73;;;;;;;26.38;49.43;101834.00;5200186;28;20340;-44
2022/08/26 11:58:03;;;;;;;;;;;;;;;26.32;49.48;101830.34;5198640;28;20051;-41
2022/08/26 12:00:51;;;;;;;6.63;1.30;;;;;;;26.40;49.31;101827.31;5200671;28;19989;-40
2022/08/26 12:03:31;;;;;;;5.72;1.20;;;;;;;26.56;48.99;101817.72;5196271;28;20370;-41
2022/08/26 12:06:14;;;;;;;7.68;1.08;;;;;;;26.68;48.62;101826.69;5207591;28;20055;-42
2022/08/26 12:08:47;;;;;;;11.55;1.63;;;;;;;26.53;48.73;101820.06;5205022;28;20423;-40
2022/08/26 12:11:24;;;;;;;8.07;1.60;;;;;;;26.34;49.03;101820.13;5208764;28;20063;-41
2022/08/26 12:13:59;;;;;;;5.85;1.58;;;;;;;26.04;49.54;101833.66;5203616;28;20480;-42
2022/08/26 12:16:35;;;;;;;8.57;1.40;;;;;;;25.70;50.00;101816.97;5161403;28;20044;-40